createdAt,value
2022-08-03T00:02:18.760Z,26.58
2022-08-03T00:04:47.132Z,26.58
2022-08-03T00:07:16.514Z,26.57
2022-08-03T00:09:44.861Z,26.56
2022-08-03T00:12:12.843Z,26.42
2022-08-03T00:14:40.836Z,26.53
2022-08-03T00:17:09.870Z,26.54
2022-08-03T00:19:37.945Z,26.53
2022-08-03T00:22:06.018Z,26.53
2022-08-03T00:24:36.286Z,26.54
2022-08-03T00:27:04.384Z,26.54
2022-08-03T00:29:32.441Z,26.53
2022-08-03T00:32:00.745Z,26.53
2022-08-03T00:34:36.424Z,26.48
2022-08-03T00:37:18.258Z,26.51
2022-08-03T00:39:48.159Z,26.51
2022-08-03T00:42:17.087Z,26.51
2022-08-03T00:44:46.269Z,26.50
2022-08-03T00:47:14.247Z,26.49
2022-08-03T00:49:43.058Z,26.51
2022-08-03T00:52:12.361Z,26.49
2022-08-03T00:54:41.295Z,26.44
2022-08-03T00:57:10.746Z,26.40
2022-08-03T00:59:39.737Z,26.33
2022-08-03T01:02:07.772Z,26.28
2022-08-03T01:04:35.762Z,26.25
2022-08-03T01:07:12.549Z,26.20
2022-08-03T01:09:52.982Z,26.17
2022-08-03T01:12:29.941Z,26.12
2022-08-03T01:15:04.362Z,26.11
2022-08-03T01:17:38.010Z,25.95
2022-08-03T01:20:09.210Z,26.01
2022-08-03T01:23:06.996Z,26.01
2022-08-03T01:25:44.806Z,25.98
2022-08-03T01:28:28.124Z,25.97
2022-08-03T01:31:02.745Z,25.96
2022-08-03T01:33:37.481Z,25.95
2022-08-03T01:36:08.813Z,25.66
2022-08-03T01:38:43.094Z,25.92
2022-08-03T01:41:14.929Z,25.91
2022-08-03T01:44:26.680Z,25.91
2022-08-03T01:46:40.409Z,25.89
2022-08-03T01:49:16.277Z,25.87
2022-08-03T01:52:02.831Z,25.87
2022-08-03T01:54:35.876Z,25.81
2022-08-03T01:57:04.963Z,25.85
2022-08-03T01:59:35.960Z,25.85
2022-08-03T02:02:28.554Z,25.86
2022-08-03T02:04:57.640Z,25.83
2022-08-03T02:07:27.640Z,25.75
2022-08-03T02:09:56.865Z,25.83
2022-08-03T02:12:29.745Z,25.81
2022-08-03T02:15:00.074Z,25.82
2022-08-03T02:17:38.643Z,25.81
2022-08-03T02:20:12.120Z,25.79
2022-08-03T02:22:42.148Z,25.79
2022-08-03T02:25:11.581Z,25.77
2022-08-03T02:27:43.809Z,25.78
2022-08-03T02:30:14.454Z,25.77
2022-08-03T02:32:48.605Z,25.75
2022-08-03T02:35:19.691Z,25.74
2022-08-03T02:37:51.562Z,25.72
2022-08-03T02:40:21.776Z,25.72
2022-08-03T02:42:52.797Z,25.70
2022-08-03T02:45:21.598Z,25.69
2022-08-03T02:47:54.991Z,25.69
2022-08-03T02:50:25.061Z,25.67
2022-08-03T02:52:54.394Z,25.67
2022-08-03T02:55:23.676Z,25.66
2022-08-03T02:57:53.854Z,25.65
2022-08-03T03:00:28.500Z,25.63
2022-08-03T03:03:00.430Z,25.62
2022-08-03T03:05:52.635Z,25.58
2022-08-03T03:08:28.164Z,25.60
2022-08-03T03:10:57.502Z,25.54
2022-08-03T03:13:26.609Z,25.60
2022-08-03T03:15:57.742Z,25.60
2022-08-03T03:18:29.751Z,25.36
2022-08-03T03:20:59.111Z,25.60
2022-08-03T03:23:29.469Z,25.61
2022-08-03T03:25:59.026Z,25.60
2022-08-03T03:28:27.608Z,25.58
2022-08-03T03:30:55.600Z,25.58
2022-08-03T03:33:24.045Z,25.59
2022-08-03T03:35:54.666Z,25.56
2022-08-03T03:38:22.740Z,25.59
2022-08-03T03:40:50.778Z,25.60
2022-08-03T03:43:19.645Z,25.61
2022-08-03T03:45:48.839Z,25.62
2022-08-03T03:48:17.269Z,25.63
2022-08-03T03:50:45.932Z,25.61
2022-08-03T03:53:15.906Z,25.65
2022-08-03T03:56:02.086Z,25.66
2022-08-03T03:58:32.143Z,25.65
2022-08-03T04:01:00.434Z,25.67
2022-08-03T04:03:28.597Z,25.68
2022-08-03T04:06:13.540Z,25.71
2022-08-03T04:09:00.360Z,25.73
2022-08-03T04:11:33.254Z,25.74
2022-08-03T04:14:06.292Z,25.76
2022-08-03T04:16:43.196Z,25.78
2022-08-03T04:19:18.453Z,25.81
2022-08-03T04:21:53.074Z,25.77
2022-08-03T04:24:30.040Z,25.82
2022-08-03T04:27:00.450Z,25.84
2022-08-03T04:29:31.995Z,25.83
2022-08-03T04:32:03.067Z,25.83
2022-08-03T04:34:31.857Z,25.83
2022-08-03T04:37:02.478Z,25.82
2022-08-03T04:39:33.955Z,25.83
2022-08-03T04:42:08.561Z,25.81
2022-08-03T04:44:40.520Z,25.83
2022-08-03T04:47:09.271Z,25.80
2022-08-03T04:49:38.577Z,25.85
2022-08-03T04:52:10.143Z,25.85
2022-08-03T04:54:50.317Z,25.85
2022-08-03T04:57:23.305Z,25.84
2022-08-03T04:59:58.303Z,25.84
2022-08-03T05:02:31.165Z,25.84
2022-08-03T05:04:59.620Z,25.84
2022-08-03T05:07:35.786Z,25.84
2022-08-03T05:10:15.176Z,25.84
2022-08-03T05:12:45.698Z,25.82
2022-08-03T05:15:14.045Z,25.83
2022-08-03T05:17:42.824Z,25.83
2022-08-03T05:20:12.303Z,25.77
2022-08-03T05:22:40.287Z,25.81
2022-08-03T05:25:10.173Z,25.26
2022-08-03T05:27:47.029Z,25.78
2022-08-03T05:30:31.431Z,25.78
2022-08-03T05:33:03.877Z,25.77
2022-08-03T05:36:00.818Z,25.77
2022-08-03T05:38:23.690Z,25.75
2022-08-03T05:41:20.168Z,25.76
2022-08-03T05:43:46.617Z,25.74
2022-08-03T05:46:14.752Z,25.71
2022-08-03T05:48:43.022Z,25.70
2022-08-03T05:51:12.456Z,25.72
2022-08-03T05:53:41.305Z,25.75
2022-08-03T05:56:13.698Z,25.75
2022-08-03T05:58:44.435Z,25.71
2022-08-03T06:01:12.543Z,25.75
2022-08-03T06:03:40.559Z,25.74
2022-08-03T06:06:08.562Z,25.74
2022-08-03T06:08:36.861Z,25.75
2022-08-03T06:11:05.001Z,25.74
2022-08-03T06:13:34.597Z,25.76
2022-08-03T06:16:02.621Z,25.74
2022-08-03T06:18:30.584Z,25.75
2022-08-03T06:20:58.513Z,25.76
2022-08-03T06:23:53.075Z,25.76
2022-08-03T06:26:23.163Z,25.75
2022-08-03T06:28:54.194Z,25.77
2022-08-03T06:31:24.178Z,25.76
2022-08-03T06:34:30.882Z,25.77
2022-08-03T06:36:40.500Z,25.77
2022-08-03T06:39:08.591Z,25.77
2022-08-03T06:41:37.686Z,25.79
2022-08-03T06:44:14.281Z,25.78
2022-08-03T06:46:43.384Z,25.55
2022-08-03T06:49:11.505Z,25.78
2022-08-03T06:52:04.117Z,25.79
2022-08-03T06:54:27.549Z,25.78
2022-08-03T06:56:55.676Z,25.78
2022-08-03T07:00:09.789Z,25.78
2022-08-03T07:02:13.233Z,25.76
2022-08-03T07:04:47.271Z,25.78
2022-08-03T07:07:15.307Z,25.78
2022-08-03T07:09:43.269Z,25.78
2022-08-03T07:12:26.193Z,25.78
2022-08-03T07:15:00.246Z,25.79
2022-08-03T07:17:31.361Z,25.78
2022-08-03T07:19:59.583Z,25.80
2022-08-03T07:22:28.390Z,25.73
2022-08-03T07:24:56.531Z,25.75
2022-08-03T07:27:26.939Z,25.84
2022-08-03T07:29:56.652Z,25.80
2022-08-03T07:32:25.206Z,25.85
2022-08-03T07:34:55.807Z,25.92
2022-08-03T07:37:28.234Z,25.95
2022-08-03T07:39:56.357Z,25.99
2022-08-03T07:42:24.421Z,26.02
2022-08-03T07:44:52.388Z,26.04
2022-08-03T07:47:24.197Z,26.08
2022-08-03T07:49:52.590Z,26.10
2022-08-03T07:52:38.425Z,26.13
2022-08-03T07:55:07.490Z,26.14
2022-08-03T07:57:36.240Z,26.18
2022-08-03T08:00:06.451Z,25.94
2022-08-03T08:02:42.268Z,26.23
2022-08-03T08:05:11.252Z,26.25
2022-08-03T08:07:39.930Z,26.27
2022-08-03T08:10:10.087Z,26.08
2022-08-03T08:12:38.700Z,26.28
2022-08-03T08:15:08.467Z,26.29
2022-08-03T08:17:45.210Z,26.30
2022-08-03T08:20:18.192Z,26.28
2022-08-03T08:22:56.973Z,26.27
2022-08-03T08:25:25.213Z,26.27
2022-08-03T08:28:31.768Z,26.24
2022-08-03T08:30:41.669Z,26.26
2022-08-03T08:33:22.569Z,26.27
2022-08-03T08:35:53.085Z,26.25
2022-08-03T08:38:21.148Z,26.27
2022-08-03T08:40:49.920Z,26.24
2022-08-03T08:43:17.967Z,26.24
2022-08-03T08:45:48.469Z,26.24
2022-08-03T08:48:22.279Z,26.28
2022-08-03T08:50:53.497Z,26.30
2022-08-03T08:53:27.313Z,26.29
2022-08-03T08:56:00.690Z,26.34
2022-08-03T08:58:31.786Z,26.36
2022-08-03T09:01:00.220Z,26.34
2022-08-03T09:03:30.950Z,25.87
2022-08-03T09:06:02.269Z,26.41
2022-08-03T09:08:31.428Z,26.43
2022-08-03T09:10:59.417Z,26.44
2022-08-03T09:13:27.436Z,26.47
2022-08-03T09:16:12.535Z,26.47
2022-08-03T09:18:43.501Z,26.49
2022-08-03T09:21:30.626Z,26.52
2022-08-03T09:24:03.679Z,26.52
2022-08-03T09:26:34.281Z,26.56
2022-08-03T09:29:07.196Z,26.55
2022-08-03T09:31:43.906Z,26.63
2022-08-03T09:34:15.240Z,26.71
2022-08-03T09:36:45.677Z,26.76
2022-08-03T09:39:15.233Z,26.66
2022-08-03T09:41:45.860Z,26.84
2022-08-03T09:44:24.379Z,26.84
2022-08-03T09:46:56.396Z,26.83
2022-08-03T09:49:26.262Z,26.83
2022-08-03T09:52:30.269Z,26.82
2022-08-03T09:54:44.135Z,26.82
2022-08-03T09:57:23.167Z,26.82
2022-08-03T09:59:58.788Z,26.76
2022-08-03T10:02:41.136Z,26.86
2022-08-03T10:05:19.606Z,26.89
2022-08-03T10:07:49.750Z,26.90
2022-08-03T10:10:31.142Z,26.92
2022-08-03T10:13:01.289Z,26.84
2022-08-03T10:16:21.763Z,26.96
2022-08-03T10:18:18.151Z,26.96
2022-08-03T10:20:52.811Z,27.00
2022-08-03T10:23:22.591Z,27.01
2022-08-03T10:25:55.901Z,27.03
2022-08-03T10:28:24.882Z,27.04
2022-08-03T10:30:55.228Z,27.07
2022-08-03T10:33:50.310Z,27.08
2022-08-03T10:36:18.805Z,27.07
2022-08-03T10:38:52.670Z,27.05
2022-08-03T10:41:22.443Z,27.04
2022-08-03T10:43:57.296Z,27.04
2022-08-03T10:46:27.551Z,27.01
2022-08-03T10:48:57.620Z,27.02
2022-08-03T10:51:32.151Z,27.01
2022-08-03T10:54:01.740Z,27.02
2022-08-03T10:56:57.831Z,27.03
2022-08-03T10:59:58.753Z,27.00
2022-08-03T11:02:59.869Z,26.99
2022-08-03T11:05:29.339Z,26.98
2022-08-03T11:08:30.159Z,27.00
2022-08-03T11:11:00.703Z,26.99
2022-08-03T11:13:31.927Z,26.98
2022-08-03T11:16:05.880Z,27.00
2022-08-03T11:18:35.240Z,26.98
2022-08-03T11:21:04.089Z,26.98
2022-08-03T11:24:05.336Z,27.01
2022-08-03T11:26:32.947Z,26.97
2022-08-03T11:29:29.021Z,26.98
2022-08-03T11:31:57.111Z,26.95
2022-08-03T11:34:25.471Z,26.98
2022-08-03T11:37:31.491Z,26.96
2022-08-03T11:40:03.104Z,26.95
2022-08-03T11:42:41.371Z,26.95
2022-08-03T11:45:11.019Z,26.94
2022-08-03T11:47:50.706Z,26.94
2022-08-03T11:50:21.503Z,26.94
2022-08-03T11:52:50.707Z,26.95
2022-08-03T11:55:22.002Z,26.96
2022-08-03T11:59:10.592Z,26.91
2022-08-03T12:00:38.743Z,26.72
2022-08-03T12:03:08.721Z,26.96
2022-08-03T12:05:42.221Z,26.94
2022-08-03T12:08:31.071Z,26.94
2022-08-03T12:11:03.124Z,26.95
2022-08-03T12:14:45.747Z,26.79
2022-08-03T12:16:28.757Z,26.93
2022-08-03T12:18:58.213Z,26.93
2022-08-03T12:21:26.723Z,26.93
2022-08-03T12:24:00.410Z,26.95
2022-08-03T12:26:31.236Z,26.94
2022-08-03T12:28:59.265Z,26.89
2022-08-03T12:31:27.350Z,26.93
2022-08-03T12:34:04.059Z,26.91
2022-08-03T12:36:35.335Z,26.89
2022-08-03T12:39:05.642Z,26.92
2022-08-03T12:41:36.636Z,26.95
2022-08-03T12:44:06.408Z,26.95
2022-08-03T12:46:36.092Z,26.93
2022-08-03T12:49:09.255Z,26.96
2022-08-03T12:51:39.186Z,26.96
2022-08-03T12:54:07.650Z,26.96
2022-08-03T12:56:37.311Z,26.97
2022-08-03T12:59:32.303Z,26.97
2022-08-03T13:02:09.339Z,26.95
2022-08-03T13:04:38.052Z,26.97
2022-08-03T13:07:12.670Z,26.97
2022-08-03T13:09:44.282Z,26.93
2022-08-03T13:12:14.985Z,26.98
2022-08-03T13:14:44.202Z,26.97
2022-08-03T13:17:12.304Z,26.98
2022-08-03T13:19:41.963Z,26.98
2022-08-03T13:22:13.733Z,26.98
2022-08-03T13:24:42.524Z,26.95
2022-08-03T13:28:02.148Z,26.97
2022-08-03T13:30:00.136Z,26.97
2022-08-03T13:32:28.222Z,26.97
2022-08-03T13:34:56.197Z,26.98
2022-08-03T13:37:24.542Z,26.98
2022-08-03T13:40:00.179Z,26.99
2022-08-03T13:42:31.476Z,27.01
2022-08-03T13:45:01.653Z,26.95
2022-08-03T13:47:30.092Z,27.01
2022-08-03T13:50:01.646Z,27.01
2022-08-03T13:52:34.946Z,27.03
2022-08-03T13:55:05.190Z,27.02
2022-08-03T13:58:06.132Z,27.02
2022-08-03T14:00:28.956Z,27.03
2022-08-03T14:03:05.361Z,27.01
2022-08-03T14:05:38.877Z,27.03
2022-08-03T14:08:08.077Z,27.05
2022-08-03T14:10:37.479Z,27.05
2022-08-03T14:13:06.646Z,27.04
2022-08-03T14:15:38.315Z,27.06
2022-08-03T14:18:12.839Z,27.04
2022-08-03T14:20:49.071Z,27.04
2022-08-03T14:23:18.537Z,27.03
2022-08-03T14:25:52.338Z,27.05
2022-08-03T14:28:22.781Z,27.05
2022-08-03T14:30:53.692Z,27.03
2022-08-03T14:33:21.842Z,27.03
2022-08-03T14:35:50.327Z,27.07
2022-08-03T14:38:19.013Z,27.01
2022-08-03T14:40:47.284Z,27.02
2022-08-03T14:43:17.853Z,26.91
2022-08-03T14:45:45.872Z,27.07
2022-08-03T14:50:29.395Z,27.08
2022-08-03T14:51:03.257Z,27.08
2022-08-03T14:53:31.221Z,27.11
2022-08-03T14:55:59.199Z,27.15
2022-08-03T14:58:27.298Z,27.22
2022-08-03T15:00:56.544Z,27.25
2022-08-03T15:03:26.584Z,27.26
2022-08-03T15:05:57.144Z,27.28
2022-08-03T15:08:26.957Z,27.30
2022-08-03T15:10:55.555Z,27.33
2022-08-03T15:13:25.320Z,27.35
2022-08-03T15:15:53.693Z,27.17
2022-08-03T15:18:21.682Z,27.39
2022-08-03T15:20:51.168Z,27.39
2022-08-03T15:23:20.037Z,27.41
2022-08-03T15:26:03.612Z,27.38
2022-08-03T15:28:37.542Z,27.33
2022-08-03T15:31:06.316Z,27.38
2022-08-03T15:33:35.180Z,27.18
2022-08-03T15:36:05.633Z,27.35
2022-08-03T15:38:33.677Z,27.32
2022-08-03T15:41:01.648Z,27.32
2022-08-03T15:43:29.696Z,27.31
2022-08-03T15:46:26.932Z,27.30
2022-08-03T15:48:46.973Z,27.27
2022-08-03T15:51:16.560Z,27.26
2022-08-03T15:53:44.533Z,27.27
2022-08-03T15:56:18.167Z,27.27
2022-08-03T15:59:09.395Z,27.27
2022-08-03T16:01:35.683Z,27.26
2022-08-03T16:04:03.716Z,27.24
2022-08-03T16:06:35.361Z,27.22
2022-08-03T16:09:05.875Z,27.24
2022-08-03T16:11:52.495Z,27.22
2022-08-03T16:14:32.224Z,27.22
2022-08-03T16:17:04.226Z,27.20
2022-08-03T16:19:32.309Z,27.20
2022-08-03T16:22:02.050Z,27.22
2022-08-03T16:24:31.837Z,27.22
2022-08-03T16:27:00.774Z,27.21
2022-08-03T16:29:29.547Z,27.21
2022-08-03T16:31:57.668Z,27.06
2022-08-03T16:34:25.700Z,27.22
2022-08-03T16:36:54.643Z,27.22
2022-08-03T16:39:24.022Z,27.22
2022-08-03T16:41:54.490Z,27.21
2022-08-03T16:44:31.230Z,27.21
2022-08-03T16:46:59.664Z,27.22
2022-08-03T16:49:55.757Z,27.20
2022-08-03T16:52:16.630Z,27.18
2022-08-03T16:54:50.625Z,27.18
2022-08-03T16:57:59.343Z,27.15
2022-08-03T17:00:12.261Z,27.17
2022-08-03T17:03:01.369Z,27.13
2022-08-03T17:05:47.450Z,27.16
2022-08-03T17:08:16.282Z,27.15
2022-08-03T17:10:48.440Z,27.16
2022-08-03T17:13:21.777Z,27.14
2022-08-03T17:15:57.922Z,27.14
2022-08-03T17:18:29.853Z,27.14
2022-08-03T17:20:59.489Z,27.13
2022-08-03T17:23:39.605Z,27.14
2022-08-03T17:26:21.204Z,27.14
2022-08-03T17:28:57.512Z,27.10
2022-08-03T17:31:32.285Z,27.11
2022-08-03T17:34:15.121Z,27.11
2022-08-03T17:37:03.772Z,27.12
2022-08-03T17:39:56.997Z,27.10
2022-08-03T17:42:39.100Z,26.94
2022-08-03T17:45:08.461Z,26.94
2022-08-03T17:47:43.898Z,27.08
2022-08-03T17:50:24.364Z,27.08
2022-08-03T17:53:06.806Z,27.08
2022-08-03T17:55:56.582Z,27.07
2022-08-03T18:02:11.596Z,26.93
2022-08-03T18:05:00.740Z,27.02
2022-08-03T18:07:41.115Z,27.02
2022-08-03T18:13:04.064Z,27.01
2022-08-03T18:15:44.399Z,27.01
2022-08-03T18:18:15.837Z,27.00
2022-08-03T18:20:45.502Z,26.89
2022-08-03T18:26:04.842Z,26.97
2022-08-03T18:28:34.985Z,26.98
2022-08-03T18:31:06.863Z,26.96
2022-08-03T18:34:17.023Z,26.97
2022-08-03T18:36:30.280Z,26.95
2022-08-03T18:39:16.641Z,26.95
2022-08-03T18:41:47.786Z,26.96
2022-08-03T18:44:46.540Z,26.96
2022-08-03T18:47:50.717Z,26.95
2022-08-03T18:50:24.599Z,26.93
2022-08-03T18:52:58.969Z,26.96
2022-08-03T18:55:33.407Z,26.94
2022-08-03T18:58:17.899Z,26.94
2022-08-03T19:00:54.275Z,26.76
2022-08-03T19:03:42.713Z,26.92
2022-08-03T19:06:19.743Z,26.90
2022-08-03T19:08:55.587Z,26.94
2022-08-03T19:11:28.232Z,26.77
2022-08-03T19:13:59.272Z,26.91
2022-08-03T19:16:34.208Z,26.93
2022-08-03T19:19:03.906Z,26.92
2022-08-03T19:21:36.093Z,26.87
2022-08-03T19:24:09.718Z,26.92
2022-08-03T19:26:39.960Z,26.91
2022-08-03T19:29:14.807Z,26.92
2022-08-03T19:31:54.448Z,26.92
2022-08-03T19:34:30.761Z,26.91
2022-08-03T19:36:59.501Z,26.90
2022-08-03T19:39:28.030Z,26.91
2022-08-03T19:42:08.179Z,26.84
2022-08-03T19:44:41.381Z,26.89
2022-08-03T19:50:05.891Z,26.90
2022-08-03T19:52:42.346Z,26.80
2022-08-03T19:55:12.827Z,26.89
2022-08-03T19:57:43.648Z,26.82
2022-08-03T20:00:19.471Z,26.90
2022-08-03T20:02:47.815Z,26.88
2022-08-03T20:05:20.436Z,26.89
2022-08-03T20:07:48.713Z,26.78
2022-08-03T20:10:17.784Z,26.86
2022-08-03T20:12:47.276Z,26.43
2022-08-03T20:15:18.370Z,26.85
2022-08-03T20:17:59.487Z,26.84
2022-08-03T20:20:30.959Z,26.83
2022-08-03T20:23:01.178Z,26.83
2022-08-03T20:25:38.719Z,26.83
2022-08-03T20:28:14.045Z,26.80
2022-08-03T20:30:46.315Z,26.81
2022-08-03T20:33:18.682Z,26.79
2022-08-03T20:35:49.854Z,26.78
2022-08-03T20:38:19.915Z,26.77
2022-08-03T20:40:56.279Z,26.77
2022-08-03T20:43:27.437Z,26.79
2022-08-03T20:46:00.142Z,26.83
2022-08-03T20:48:48.577Z,26.85
2022-08-03T20:51:48.996Z,26.89
2022-08-03T20:54:22.792Z,26.91
2022-08-03T20:56:56.398Z,26.92
2022-08-03T20:59:28.570Z,26.95
2022-08-03T21:01:58.527Z,26.98
2022-08-03T21:04:26.513Z,26.92
2022-08-03T21:07:01.163Z,27.03
2022-08-03T21:09:41.081Z,27.01
2022-08-03T21:12:17.844Z,27.00
2022-08-03T21:12:57.105Z,27.02
2022-08-03T21:12:57.899Z,26.98
2022-08-03T21:13:02.898Z,26.90
2022-08-03T21:13:05.447Z,27.05
2022-08-03T21:14:53.478Z,27.02
2022-08-03T21:17:39.907Z,27.03
2022-08-03T21:20:11.263Z,27.04
2022-08-03T21:22:45.173Z,27.09
2022-08-03T21:25:16.089Z,27.08
2022-08-03T21:27:44.312Z,27.09
2022-08-03T21:30:13.037Z,27.11
2022-08-03T21:32:45.448Z,27.14
2022-08-03T21:35:14.571Z,27.12
2022-08-03T21:37:44.858Z,27.14
2022-08-03T21:40:15.077Z,27.15
2022-08-03T21:42:45.890Z,27.08
2022-08-03T21:45:17.446Z,27.16
2022-08-03T21:47:47.015Z,27.17
2022-08-03T21:50:15.223Z,27.17
2022-08-03T21:52:46.729Z,27.09
2022-08-03T21:55:18.666Z,27.18
2022-08-03T21:57:54.513Z,27.19
2022-08-03T22:00:24.578Z,27.17
2022-08-03T22:02:55.337Z,27.17
2022-08-03T22:05:42.533Z,27.05
2022-08-03T22:08:14.562Z,27.17
2022-08-03T22:10:45.429Z,27.17
2022-08-03T22:13:14.109Z,27.20
2022-08-03T22:15:42.252Z,27.30
2022-08-03T22:18:10.657Z,27.10
2022-08-03T22:20:38.666Z,27.29
2022-08-03T22:23:08.636Z,27.28
2022-08-03T22:25:40.662Z,27.26
2022-08-03T22:28:11.046Z,27.23
2022-08-03T22:30:40.867Z,27.16
2022-08-03T22:33:12.015Z,27.21
2022-08-03T22:35:48.039Z,27.20
2022-08-03T22:38:17.472Z,27.18
2022-08-03T22:40:51.061Z,27.18
2022-08-03T22:43:22.708Z,27.17
2022-08-03T22:46:09.528Z,27.16
2022-08-03T22:48:41.607Z,27.14
2022-08-03T22:51:10.596Z,26.95
2022-08-03T22:53:40.352Z,27.15
2022-08-03T22:56:09.886Z,27.15
2022-08-03T22:58:37.859Z,27.14
2022-08-03T23:01:08.300Z,27.15
2022-08-03T23:04:00.775Z,27.15
2022-08-03T23:06:34.607Z,27.13
2022-08-03T23:09:05.757Z,27.14
2022-08-03T23:11:37.916Z,27.14
2022-08-03T23:14:12.749Z,27.14
2022-08-03T23:16:42.482Z,27.13
2022-08-03T23:19:16.674Z,27.14
2022-08-03T23:22:00.657Z,27.10
2022-08-03T23:24:34.483Z,27.12
2022-08-03T23:27:06.187Z,27.12
2022-08-03T23:29:36.510Z,27.11
2022-08-03T23:32:06.061Z,27.09
2022-08-03T23:34:51.709Z,27.12
2022-08-03T23:37:20.938Z,27.10
2022-08-03T23:39:50.118Z,27.11
2022-08-03T23:42:21.338Z,27.12
2022-08-03T23:44:55.096Z,27.11
2022-08-03T23:47:23.993Z,27.10
2022-08-03T23:49:52.250Z,27.10
2022-08-03T23:52:29.035Z,27.10
2022-08-03T23:55:11.541Z,27.08
2022-08-03T23:57:51.921Z,27.09
